sensor_id;sensor_type;location;lat;lon;timestamp;P1;durP1;ratioP1;P2;durP2;ratioP2
20705;SDS011;10514;49.468;11.044;2024-02-14T00:01:22;10.43;;;6.33;;
20705;SDS011;10514;49.468;11.044;2024-02-14T00:03:48;10.90;;;6.20;;
20705;SDS011;10514;49.468;11.044;2024-02-14T00:06:14;12.90;;;6.20;;
20705;SDS011;10514;49.468;11.044;2024-02-14T00:08:39;9.30;;;5.63;;
20705;SDS011;10514;49.468;11.044;2024-02-14T00:11:05;10.90;;;5.97;;
20705;SDS011;10514;49.468;11.044;2024-02-14T00:13:31;12.93;;;6.17;;
20705;SDS011;10514;49.468;11.044;2024-02-14T00:15:59;11.17;;;6.13;;
20705;SDS011;10514;49.468;11.044;2024-02-14T00:18:25;10.53;;;6.43;;
20705;SDS011;10514;49.468;11.044;2024-02-14T00:20:50;10.17;;;5.80;;
20705;SDS011;10514;49.468;11.044;2024-02-14T00:23:16;12.73;;;6.30;;
20705;SDS011;10514;49.468;11.044;2024-02-14T00:25:41;12.77;;;6.67;;
20705;SDS011;10514;49.468;11.044;2024-02-14T00:28:07;9.63;;;5.70;;
20705;SDS011;10514;49.468;11.044;2024-02-14T00:30:32;9.70;;;6.00;;
20705;SDS011;10514;49.468;11.044;2024-02-14T00:32:59;9.60;;;5.87;;
20705;SDS011;10514;49.468;11.044;2024-02-14T00:35:24;9.83;;;5.47;;
20705;SDS011;10514;49.468;11.044;2024-02-14T00:37:50;10.07;;;6.40;;
20705;SDS011;10514;49.468;11.044;2024-02-14T00:40:17;10.23;;;5.37;;
20705;SDS011;10514;49.468;11.044;2024-02-14T00:42:43;8.93;;;5.70;;
20705;SDS011;10514;49.468;11.044;2024-02-14T00:45:08;9.63;;;5.70;;
20705;SDS011;10514;49.468;11.044;2024-02-14T00:47:34;9.30;;;6.20;;
20705;SDS011;10514;49.468;11.044;2024-02-14T00:50:00;13.50;;;5.47;;
20705;SDS011;10514;49.468;11.044;2024-02-14T00:52:29;10.67;;;5.93;;
20705;SDS011;10514;49.468;11.044;2024-02-14T00:54:54;9.43;;;5.37;;
20705;SDS011;10514;49.468;11.044;2024-02-14T00:57:21;9.30;;;5.13;;
20705;SDS011;10514;49.468;11.044;2024-02-14T00:59:51;10.27;;;5.90;;
20705;SDS011;10514;49.468;11.044;2024-02-14T01:02:17;10.80;;;6.40;;
20705;SDS011;10514;49.468;11.044;2024-02-14T01:04:43;8.60;;;5.63;;
20705;SDS011;10514;49.468;11.044;2024-02-14T01:07:09;9.53;;;5.70;;
20705;SDS011;10514;49.468;11.044;2024-02-14T01:09:34;10.87;;;5.50;;
20705;SDS011;10514;49.468;11.044;2024-02-14T01:12:01;13.20;;;5.40;;
20705;SDS011;10514;49.468;11.044;2024-02-14T01:14:27;9.07;;;4.93;;
20705;SDS011;10514;49.468;11.044;2024-02-14T01:16:53;10.43;;;5.37;;
20705;SDS011;10514;49.468;11.044;2024-02-14T01:19:19;9.00;;;5.83;;
20705;SDS011;10514;49.468;11.044;2024-02-14T01:21:45;11.47;;;5.80;;
20705;SDS011;10514;49.468;11.044;2024-02-14T01:24:13;9.03;;;5.43;;
20705;SDS011;10514;49.468;11.044;2024-02-14T01:26:39;8.47;;;5.47;;
20705;SDS011;10514;49.468;11.044;2024-02-14T01:29:05;9.77;;;5.67;;
20705;SDS011;10514;49.468;11.044;2024-02-14T01:31:31;9.00;;;5.37;;
20705;SDS011;10514;49.468;11.044;2024-02-14T01:33:58;8.67;;;5.90;;
20705;SDS011;10514;49.468;11.044;2024-02-14T01:36:26;7.70;;;4.87;;
20705;SDS011;10514;49.468;11.044;2024-02-14T01:38:53;9.20;;;4.63;;
20705;SDS011;10514;49.468;11.044;2024-02-14T01:41:18;8.17;;;4.63;;
20705;SDS011;10514;49.468;11.044;2024-02-14T01:43:46;8.73;;;5.07;;
20705;SDS011;10514;49.468;11.044;2024-02-14T01:46:14;9.23;;;5.07;;
20705;SDS011;10514;49.468;11.044;2024-02-14T01:48:41;8.53;;;4.83;;
20705;SDS011;10514;49.468;11.044;2024-02-14T01:51:08;8.00;;;4.67;;
20705;SDS011;10514;49.468;11.044;2024-02-14T01:53:36;9.37;;;4.50;;
20705;SDS011;10514;49.468;11.044;2024-02-14T01:56:03;7.90;;;4.93;;
20705;SDS011;10514;49.468;11.044;2024-02-14T01:58:30;7.67;;;4.70;;
20705;SDS011;10514;49.468;11.044;2024-02-14T02:00:57;8.80;;;4.70;;
20705;SDS011;10514;49.468;11.044;2024-02-14T02:03:23;9.17;;;4.70;;
20705;SDS011;10514;49.468;11.044;2024-02-14T02:05:49;6.17;;;4.17;;
20705;SDS011;10514;49.468;11.044;2024-02-14T02:08:16;8.53;;;4.70;;
20705;SDS011;10514;49.468;11.044;2024-02-14T02:10:41;8.30;;;4.50;;
20705;SDS011;10514;49.468;11.044;2024-02-14T02:13:07;7.20;;;4.27;;
20705;SDS011;10514;49.468;11.044;2024-02-14T02:15:34;8.63;;;4.70;;
20705;SDS011;10514;49.468;11.044;2024-02-14T02:17:59;6.93;;;4.30;;
20705;SDS011;10514;49.468;11.044;2024-02-14T02:20:27;8.80;;;4.50;;
20705;SDS011;10514;49.468;11.044;2024-02-14T02:22:53;9.43;;;4.97;;
20705;SDS011;10514;49.468;11.044;2024-02-14T02:25:18;10.93;;;5.40;;
20705;SDS011;10514;49.468;11.044;2024-02-14T02:27:51;9.77;;;5.97;;
20705;SDS011;10514;49.468;11.044;2024-02-14T02:30:21;8.13;;;5.03;;
20705;SDS011;10514;49.468;11.044;2024-02-14T02:32:47;8.10;;;4.47;;
20705;SDS011;10514;49.468;11.044;2024-02-14T02:35:12;7.67;;;4.50;;
20705;SDS011;10514;49.468;11.044;2024-02-14T02:37:38;7.93;;;4.40;;
20705;SDS011;10514;49.468;11.044;2024-02-14T02:40:04;6.40;;;4.17;;
20705;SDS011;10514;49.468;11.044;2024-02-14T02:42:30;7.17;;;4.53;;
20705;SDS011;10514;49.468;11.044;2024-02-14T02:44:55;6.17;;;4.00;;
20705;SDS011;10514;49.468;11.044;2024-02-14T02:47:21;9.73;;;4.17;;
20705;SDS011;10514;49.468;11.044;2024-02-14T02:49:46;8.57;;;4.47;;
20705;SDS011;10514;49.468;11.044;2024-02-14T02:52:12;6.77;;;4.30;;
20705;SDS011;10514;49.468;11.044;2024-02-14T02:54:38;7.27;;;4.30;;
20705;SDS011;10514;49.468;11.044;2024-02-14T02:57:08;7.75;;;3.90;;
20705;SDS011;10514;49.468;11.044;2024-02-14T02:59:37;7.30;;;3.93;;
20705;SDS011;10514;49.468;11.044;2024-02-14T03:02:04;9.23;;;4.30;;
20705;SDS011;10514;49.468;11.044;2024-02-14T03:04:33;8.60;;;4.10;;
20705;SDS011;10514;49.468;11.044;2024-02-14T03:06:58;7.67;;;4.13;;
20705;SDS011;10514;49.468;11.044;2024-02-14T03:09:24;9.93;;;4.73;;
20705;SDS011;10514;49.468;11.044;2024-02-14T03:11:51;6.87;;;3.60;;
20705;SDS011;10514;49.468;11.044;2024-02-14T03:14:17;10.03;;;4.57;;
20705;SDS011;10514;49.468;11.044;2024-02-14T03:16:42;6.30;;;3.83;;
20705;SDS011;10514;49.468;11.044;2024-02-14T03:19:08;9.40;;;4.07;;
20705;SDS011;10514;49.468;11.044;2024-02-14T03:21:33;7.70;;;3.87;;
20705;SDS011;10514;49.468;11.044;2024-02-14T03:24:00;7.30;;;3.77;;
20705;SDS011;10514;49.468;11.044;2024-02-14T03:26:26;7.37;;;3.87;;
20705;SDS011;10514;49.468;11.044;2024-02-14T03:28:52;7.83;;;3.70;;
20705;SDS011;10514;49.468;11.044;2024-02-14T03:31:19;6.00;;;3.37;;
20705;SDS011;10514;49.468;11.044;2024-02-14T03:33:45;7.20;;;3.60;;
20705;SDS011;10514;49.468;11.044;2024-02-14T03:36:11;7.93;;;4.40;;
20705;SDS011;10514;49.468;11.044;2024-02-14T03:38:36;7.47;;;3.80;;
20705;SDS011;10514;49.468;11.044;2024-02-14T03:41:04;8.30;;;4.20;;
20705;SDS011;10514;49.468;11.044;2024-02-14T03:43:30;8.10;;;3.77;;
20705;SDS011;10514;49.468;11.044;2024-02-14T03:45:57;5.07;;;3.40;;
20705;SDS011;10514;49.468;11.044;2024-02-14T03:48:22;6.23;;;3.77;;
20705;SDS011;10514;49.468;11.044;2024-02-14T03:50:48;7.90;;;3.97;;
20705;SDS011;10514;49.468;11.044;2024-02-14T03:53:13;6.37;;;3.83;;
20705;SDS011;10514;49.468;11.044;2024-02-14T03:55:40;7.00;;;4.07;;
20705;SDS011;10514;49.468;11.044;2024-02-14T03:58:05;7.00;;;3.67;;
20705;SDS011;10514;49.468;11.044;2024-02-14T04:00:33;7.00;;;3.70;;
20705;SDS011;10514;49.468;11.044;2024-02-14T04:03:00;8.03;;;3.13;;
20705;SDS011;10514;49.468;11.044;2024-02-14T04:05:27;6.83;;;3.80;;
20705;SDS011;10514;49.468;11.044;2024-02-14T04:07:53;8.07;;;3.67;;
20705;SDS011;10514;49.468;11.044;2024-02-14T04:10:20;6.60;;;3.77;;
20705;SDS011;10514;49.468;11.044;2024-02-14T04:12:45;7.87;;;3.93;;
20705;SDS011;10514;49.468;11.044;2024-02-14T04:15:11;6.63;;;3.50;;
20705;SDS011;10514;49.468;11.044;2024-02-14T04:17:37;6.97;;;3.37;;
20705;SDS011;10514;49.468;11.044;2024-02-14T04:20:03;6.17;;;3.70;;
20705;SDS011;10514;49.468;11.044;2024-02-14T04:22:29;8.40;;;3.80;;
20705;SDS011;10514;49.468;11.044;2024-02-14T04:24:55;9.00;;;4.10;;
20705;SDS011;10514;49.468;11.044;2024-02-14T04:27:21;7.70;;;4.10;;
20705;SDS011;10514;49.468;11.044;2024-02-14T04:29:47;6.67;;;3.70;;
20705;SDS011;10514;49.468;11.044;2024-02-14T04:32:12;7.30;;;4.00;;
20705;SDS011;10514;49.468;11.044;2024-02-14T04:34:39;5.53;;;3.40;;
20705;SDS011;10514;49.468;11.044;2024-02-14T04:37:04;7.33;;;4.23;;
20705;SDS011;10514;49.468;11.044;2024-02-14T04:39:37;8.70;;;3.80;;
20705;SDS011;10514;49.468;11.044;2024-02-14T04:42:03;6.50;;;3.60;;
20705;SDS011;10514;49.468;11.044;2024-02-14T04:44:29;7.53;;;3.80;;
20705;SDS011;10514;49.468;11.044;2024-02-14T04:46:56;6.90;;;3.80;;
20705;SDS011;10514;49.468;11.044;2024-02-14T04:49:24;8.23;;;3.93;;
20705;SDS011;10514;49.468;11.044;2024-02-14T04:51:51;5.53;;;3.33;;
20705;SDS011;10514;49.468;11.044;2024-02-14T04:54:17;7.37;;;3.90;;
20705;SDS011;10514;49.468;11.044;2024-02-14T04:56:43;5.73;;;3.50;;
20705;SDS011;10514;49.468;11.044;2024-02-14T04:59:10;5.93;;;3.20;;
20705;SDS011;10514;49.468;11.044;2024-02-14T05:01:36;6.40;;;3.37;;
20705;SDS011;10514;49.468;11.044;2024-02-14T05:04:01;6.53;;;3.50;;
20705;SDS011;10514;49.468;11.044;2024-02-14T05:06:28;6.23;;;3.70;;
20705;SDS011;10514;49.468;11.044;2024-02-14T05:08:55;7.37;;;3.40;;
20705;SDS011;10514;49.468;11.044;2024-02-14T05:11:20;5.40;;;3.40;;
20705;SDS011;10514;49.468;11.044;2024-02-14T05:13:46;5.83;;;3.50;;
20705;SDS011;10514;49.468;11.044;2024-02-14T05:16:12;8.23;;;3.43;;
20705;SDS011;10514;49.468;11.044;2024-02-14T05:18:38;6.03;;;3.60;;
20705;SDS011;10514;49.468;11.044;2024-02-14T05:21:07;5.70;;;3.50;;
20705;SDS011;10514;49.468;11.044;2024-02-14T05:23:33;6.63;;;3.93;;
20705;SDS011;10514;49.468;11.044;2024-02-14T05:26:00;6.57;;;3.17;;
20705;SDS011;10514;49.468;11.044;2024-02-14T05:28:27;6.53;;;3.63;;
20705;SDS011;10514;49.468;11.044;2024-02-14T05:30:56;8.77;;;3.63;;
20705;SDS011;10514;49.468;11.044;2024-02-14T05:33:22;5.40;;;3.60;;
20705;SDS011;10514;49.468;11.044;2024-02-14T05:35:48;9.90;;;3.37;;
20705;SDS011;10514;49.468;11.044;2024-02-14T05:38:14;7.13;;;3.73;;
20705;SDS011;10514;49.468;11.044;2024-02-14T05:40:40;7.57;;;3.67;;
20705;SDS011;10514;49.468;11.044;2024-02-14T05:43:08;8.93;;;4.53;;
20705;SDS011;10514;49.468;11.044;2024-02-14T05:45:37;9.47;;;4.33;;
20705;SDS011;10514;49.468;11.044;2024-02-14T05:48:03;9.27;;;4.30;;
20705;SDS011;10514;49.468;11.044;2024-02-14T05:50:28;6.90;;;4.13;;
20705;SDS011;10514;49.468;11.044;2024-02-14T05:52:54;7.67;;;4.17;;
20705;SDS011;10514;49.468;11.044;2024-02-14T05:55:22;9.40;;;4.70;;
20705;SDS011;10514;49.468;11.044;2024-02-14T05:57:48;7.90;;;3.87;;
20705;SDS011;10514;49.468;11.044;2024-02-14T06:00:13;9.60;;;4.07;;
20705;SDS011;10514;49.468;11.044;2024-02-14T06:02:39;9.87;;;4.80;;
20705;SDS011;10514;49.468;11.044;2024-02-14T06:05:05;8.03;;;3.70;;
20705;SDS011;10514;49.468;11.044;2024-02-14T06:07:34;7.60;;;3.97;;
20705;SDS011;10514;49.468;11.044;2024-02-14T06:10:03;7.23;;;3.70;;
20705;SDS011;10514;49.468;11.044;2024-02-14T06:12:28;7.63;;;4.10;;
20705;SDS011;10514;49.468;11.044;2024-02-14T06:14:54;7.33;;;4.03;;
20705;SDS011;10514;49.468;11.044;2024-02-14T06:17:20;6.50;;;4.00;;
20705;SDS011;10514;49.468;11.044;2024-02-14T06:19:46;6.73;;;3.43;;
20705;SDS011;10514;49.468;11.044;2024-02-14T06:22:11;8.37;;;3.70;;
20705;SDS011;10514;49.468;11.044;2024-02-14T06:24:37;9.07;;;3.90;;
20705;SDS011;10514;49.468;11.044;2024-02-14T06:27:02;10.47;;;4.33;;
20705;SDS011;10514;49.468;11.044;2024-02-14T06:29:28;6.07;;;3.63;;
20705;SDS011;10514;49.468;11.044;2024-02-14T06:31:53;10.30;;;4.30;;
20705;SDS011;10514;49.468;11.044;2024-02-14T06:34:19;10.83;;;4.20;;
20705;SDS011;10514;49.468;11.044;2024-02-14T06:36:46;9.73;;;4.20;;
20705;SDS011;10514;49.468;11.044;2024-02-14T06:39:11;8.13;;;4.50;;
20705;SDS011;10514;49.468;11.044;2024-02-14T06:41:37;7.80;;;4.20;;
20705;SDS011;10514;49.468;11.044;2024-02-14T06:44:04;6.53;;;4.07;;
20705;SDS011;10514;49.468;11.044;2024-02-14T06:46:30;7.43;;;3.77;;
20705;SDS011;10514;49.468;11.044;2024-02-14T06:48:55;6.30;;;3.90;;
20705;SDS011;10514;49.468;11.044;2024-02-14T06:51:21;9.07;;;4.07;;
20705;SDS011;10514;49.468;11.044;2024-02-14T06:53:49;8.33;;;4.33;;
20705;SDS011;10514;49.468;11.044;2024-02-14T06:56:15;6.90;;;3.73;;
20705;SDS011;10514;49.468;11.044;2024-02-14T06:58:40;9.27;;;4.40;;
20705;SDS011;10514;49.468;11.044;2024-02-14T07:01:06;10.57;;;4.00;;
20705;SDS011;10514;49.468;11.044;2024-02-14T07:03:32;8.17;;;4.20;;
20705;SDS011;10514;49.468;11.044;2024-02-14T07:05:57;6.80;;;3.90;;
20705;SDS011;10514;49.468;11.044;2024-02-14T07:08:23;10.07;;;4.60;;
20705;SDS011;10514;49.468;11.044;2024-02-14T07:10:51;9.60;;;4.47;;
20705;SDS011;10514;49.468;11.044;2024-02-14T07:13:16;7.90;;;4.00;;
20705;SDS011;10514;49.468;11.044;2024-02-14T07:15:42;7.70;;;4.17;;
20705;SDS011;10514;49.468;11.044;2024-02-14T07:18:08;6.87;;;3.93;;
20705;SDS011;10514;49.468;11.044;2024-02-14T07:20:34;9.37;;;4.43;;
20705;SDS011;10514;49.468;11.044;2024-02-14T07:23:01;8.13;;;4.40;;
20705;SDS011;10514;49.468;11.044;2024-02-14T07:25:26;9.93;;;4.37;;
20705;SDS011;10514;49.468;11.044;2024-02-14T07:27:52;10.67;;;4.70;;
20705;SDS011;10514;49.468;11.044;2024-02-14T07:30:18;9.10;;;4.80;;
20705;SDS011;10514;49.468;11.044;2024-02-14T07:32:44;9.00;;;4.60;;
20705;SDS011;10514;49.468;11.044;2024-02-14T07:35:10;7.63;;;4.53;;
20705;SDS011;10514;49.468;11.044;2024-02-14T07:37:36;10.17;;;4.47;;
20705;SDS011;10514;49.468;11.044;2024-02-14T07:40:02;9.77;;;4.90;;
20705;SDS011;10514;49.468;11.044;2024-02-14T07:42:28;10.80;;;5.73;;
20705;SDS011;10514;49.468;11.044;2024-02-14T07:44:53;10.90;;;5.13;;
20705;SDS011;10514;49.468;11.044;2024-02-14T07:47:21;9.87;;;5.20;;
20705;SDS011;10514;49.468;11.044;2024-02-14T07:49:46;9.07;;;4.93;;
20705;SDS011;10514;49.468;11.044;2024-02-14T07:52:12;11.53;;;5.20;;
20705;SDS011;10514;49.468;11.044;2024-02-14T07:54:37;11.00;;;5.37;;
20705;SDS011;10514;49.468;11.044;2024-02-14T07:57:03;10.10;;;5.00;;
20705;SDS011;10514;49.468;11.044;2024-02-14T07:59:28;8.20;;;4.87;;
20705;SDS011;10514;49.468;11.044;2024-02-14T08:01:54;8.90;;;4.90;;
20705;SDS011;10514;49.468;11.044;2024-02-14T08:04:19;8.43;;;4.67;;
20705;SDS011;10514;49.468;11.044;2024-02-14T08:06:46;8.37;;;4.80;;
20705;SDS011;10514;49.468;11.044;2024-02-14T08:09:12;9.63;;;5.00;;
20705;SDS011;10514;49.468;11.044;2024-02-14T08:11:37;9.63;;;4.60;;
20705;SDS011;10514;49.468;11.044;2024-02-14T08:14:03;7.37;;;4.70;;
20705;SDS011;10514;49.468;11.044;2024-02-14T08:16:30;9.67;;;5.47;;
20705;SDS011;10514;49.468;11.044;2024-02-14T08:19:30;8.30;;;5.10;;
20705;SDS011;10514;49.468;11.044;2024-02-14T08:21:59;8.83;;;5.03;;
20705;SDS011;10514;49.468;11.044;2024-02-14T08:24:28;7.83;;;4.90;;
20705;SDS011;10514;49.468;11.044;2024-02-14T08:26:54;10.67;;;4.73;;
20705;SDS011;10514;49.468;11.044;2024-02-14T08:29:19;8.60;;;4.70;;
20705;SDS011;10514;49.468;11.044;2024-02-14T08:31:45;8.47;;;5.03;;
20705;SDS011;10514;49.468;11.044;2024-02-14T08:34:11;7.97;;;4.80;;
20705;SDS011;10514;49.468;11.044;2024-02-14T08:36:37;8.03;;;4.30;;
20705;SDS011;10514;49.468;11.044;2024-02-14T08:39:07;8.57;;;4.77;;
20705;SDS011;10514;49.468;11.044;2024-02-14T08:41:32;11.13;;;5.07;;
20705;SDS011;10514;49.468;11.044;2024-02-14T08:43:58;7.90;;;4.70;;
20705;SDS011;10514;49.468;11.044;2024-02-14T08:46:24;12.67;;;5.30;;
20705;SDS011;10514;49.468;11.044;2024-02-14T08:48:50;9.53;;;5.27;;
20705;SDS011;10514;49.468;11.044;2024-02-14T08:51:17;8.07;;;5.37;;
20705;SDS011;10514;49.468;11.044;2024-02-14T08:53:45;9.03;;;5.00;;
20705;SDS011;10514;49.468;11.044;2024-02-14T08:56:11;9.37;;;5.40;;
20705;SDS011;10514;49.468;11.044;2024-02-14T08:58:37;12.13;;;5.50;;
20705;SDS011;10514;49.468;11.044;2024-02-14T09:01:02;8.43;;;5.20;;
20705;SDS011;10514;49.468;11.044;2024-02-14T09:03:28;9.67;;;5.07;;
20705;SDS011;10514;49.468;11.044;2024-02-14T09:05:56;8.23;;;5.07;;
20705;SDS011;10514;49.468;11.044;2024-02-14T09:08:22;9.93;;;5.00;;
20705;SDS011;10514;49.468;11.044;2024-02-14T09:10:49;9.20;;;5.47;;
20705;SDS011;10514;49.468;11.044;2024-02-14T09:13:17;11.47;;;5.23;;
20705;SDS011;10514;49.468;11.044;2024-02-14T09:15:43;10.73;;;5.43;;
20705;SDS011;10514;49.468;11.044;2024-02-14T09:18:09;9.00;;;5.00;;
20705;SDS011;10514;49.468;11.044;2024-02-14T09:20:34;9.43;;;5.00;;
20705;SDS011;10514;49.468;11.044;2024-02-14T09:23:00;11.30;;;5.20;;
20705;SDS011;10514;49.468;11.044;2024-02-14T09:25:25;9.53;;;4.67;;
20705;SDS011;10514;49.468;11.044;2024-02-14T09:27:51;8.93;;;4.63;;
20705;SDS011;10514;49.468;11.044;2024-02-14T09:30:18;10.83;;;4.50;;
20705;SDS011;10514;49.468;11.044;2024-02-14T09:32:44;7.13;;;4.27;;
20705;SDS011;10514;49.468;11.044;2024-02-14T09:35:10;8.17;;;4.20;;
20705;SDS011;10514;49.468;11.044;2024-02-14T09:37:36;8.93;;;4.10;;
20705;SDS011;10514;49.468;11.044;2024-02-14T09:40:07;8.43;;;4.23;;
20705;SDS011;10514;49.468;11.044;2024-02-14T09:42:38;8.87;;;4.80;;
20705;SDS011;10514;49.468;11.044;2024-02-14T09:45:06;8.27;;;4.17;;
20705;SDS011;10514;49.468;11.044;2024-02-14T09:47:33;7.70;;;4.60;;
20705;SDS011;10514;49.468;11.044;2024-02-14T09:50:01;7.17;;;3.90;;
20705;SDS011;10514;49.468;11.044;2024-02-14T09:52:31;7.47;;;4.17;;
20705;SDS011;10514;49.468;11.044;2024-02-14T09:54:58;7.17;;;3.90;;
20705;SDS011;10514;49.468;11.044;2024-02-14T09:57:24;6.20;;;3.80;;
20705;SDS011;10514;49.468;11.044;2024-02-14T09:59:51;9.80;;;4.33;;
20705;SDS011;10514;49.468;11.044;2024-02-14T10:02:18;10.57;;;4.40;;
20705;SDS011;10514;49.468;11.044;2024-02-14T10:04:45;8.47;;;3.83;;
20705;SDS011;10514;49.468;11.044;2024-02-14T10:07:10;8.03;;;3.83;;
20705;SDS011;10514;49.468;11.044;2024-02-14T10:09:42;9.07;;;3.50;;
20705;SDS011;10514;49.468;11.044;2024-02-14T10:12:08;9.40;;;4.47;;
20705;SDS011;10514;49.468;11.044;2024-02-14T10:14:36;9.60;;;5.23;;
20705;SDS011;10514;49.468;11.044;2024-02-14T10:17:02;6.20;;;3.87;;
20705;SDS011;10514;49.468;11.044;2024-02-14T10:19:29;7.63;;;3.83;;
20705;SDS011;10514;49.468;11.044;2024-02-14T10:21:55;7.03;;;3.87;;
20705;SDS011;10514;49.468;11.044;2024-02-14T10:24:25;7.40;;;3.58;;
20705;SDS011;10514;49.468;11.044;2024-02-14T10:26:52;6.47;;;3.63;;
20705;SDS011;10514;49.468;11.044;2024-02-14T10:29:18;7.57;;;3.67;;
20705;SDS011;10514;49.468;11.044;2024-02-14T10:31:48;9.20;;;3.60;;
20705;SDS011;10514;49.468;11.044;2024-02-14T10:34:13;9.93;;;3.70;;
20705;SDS011;10514;49.468;11.044;2024-02-14T10:36:39;10.77;;;3.90;;
20705;SDS011;10514;49.468;11.044;2024-02-14T10:39:08;6.10;;;3.53;;
20705;SDS011;10514;49.468;11.044;2024-02-14T10:41:36;4.22;;;2.95;;
20705;SDS011;10514;49.468;11.044;2024-02-14T10:44:05;14.18;;;5.05;;
20705;SDS011;10514;49.468;11.044;2024-02-14T10:46:31;7.22;;;3.00;;
20705;SDS011;10514;49.468;11.044;2024-02-14T10:49:01;7.75;;;3.47;;
20705;SDS011;10514;49.468;11.044;2024-02-14T10:51:30;5.82;;;2.95;;
20705;SDS011;10514;49.468;11.044;2024-02-14T10:53:57;7.90;;;2.97;;
20705;SDS011;10514;49.468;11.044;2024-02-14T10:56:24;6.43;;;3.05;;
20705;SDS011;10514;49.468;11.044;2024-02-14T10:58:53;7.13;;;3.08;;
20705;SDS011;10514;49.468;11.044;2024-02-14T11:01:25;5.90;;;3.00;;
20705;SDS011;10514;49.468;11.044;2024-02-14T11:06:23;4.75;;;2.40;;
20705;SDS011;10514;49.468;11.044;2024-02-14T11:09:02;6.05;;;3.13;;
20705;SDS011;10514;49.468;11.044;2024-02-14T11:11:32;5.68;;;3.03;;
20705;SDS011;10514;49.468;11.044;2024-02-14T11:13:59;5.30;;;2.75;;
20705;SDS011;10514;49.468;11.044;2024-02-14T11:16:28;4.88;;;2.50;;
20705;SDS011;10514;49.468;11.044;2024-02-14T11:19:09;5.53;;;2.50;;
20705;SDS011;10514;49.468;11.044;2024-02-14T11:21:39;6.05;;;2.47;;
20705;SDS011;10514;49.468;11.044;2024-02-14T11:24:07;5.47;;;2.70;;
20705;SDS011;10514;49.468;11.044;2024-02-14T11:26:47;7.10;;;2.03;;
20705;SDS011;10514;49.468;11.044;2024-02-14T11:29:17;3.72;;;1.75;;
20705;SDS011;10514;49.468;11.044;2024-02-14T11:31:46;3.17;;;1.52;;
20705;SDS011;10514;49.468;11.044;2024-02-14T11:34:16;4.40;;;1.50;;
20705;SDS011;10514;49.468;11.044;2024-02-14T11:36:42;4.07;;;1.40;;
20705;SDS011;10514;49.468;11.044;2024-02-14T11:39:10;2.47;;;1.52;;
20705;SDS011;10514;49.468;11.044;2024-02-14T11:41:37;2.92;;;1.30;;
20705;SDS011;10514;49.468;11.044;2024-02-14T11:44:03;11.90;;;7.88;;
20705;SDS011;10514;49.468;11.044;2024-02-14T11:46:33;5.22;;;2.20;;
20705;SDS011;10514;49.468;11.044;2024-02-14T11:49:00;3.27;;;1.40;;
20705;SDS011;10514;49.468;11.044;2024-02-14T11:51:30;6.28;;;1.63;;
20705;SDS011;10514;49.468;11.044;2024-02-14T11:53:57;3.65;;;1.70;;
20705;SDS011;10514;49.468;11.044;2024-02-14T11:56:29;3.17;;;1.38;;
20705;SDS011;10514;49.468;11.044;2024-02-14T11:58:59;7.32;;;2.50;;
20705;SDS011;10514;49.468;11.044;2024-02-14T12:01:27;3.03;;;1.60;;
20705;SDS011;10514;49.468;11.044;2024-02-14T12:03:55;3.63;;;1.30;;
20705;SDS011;10514;49.468;11.044;2024-02-14T12:06:22;3.78;;;2.33;;
20705;SDS011;10514;49.468;11.044;2024-02-14T12:08:47;5.80;;;2.55;;
20705;SDS011;10514;49.468;11.044;2024-02-14T12:11:13;4.20;;;2.10;;
20705;SDS011;10514;49.468;11.044;2024-02-14T12:13:38;3.10;;;1.50;;
20705;SDS011;10514;49.468;11.044;2024-02-14T12:16:08;2.67;;;1.30;;
20705;SDS011;10514;49.468;11.044;2024-02-14T12:18:35;2.75;;;1.30;;
20705;SDS011;10514;49.468;11.044;2024-02-14T12:21:07;2.45;;;1.38;;
20705;SDS011;10514;49.468;11.044;2024-02-14T12:23:33;3.13;;;1.70;;
20705;SDS011;10514;49.468;11.044;2024-02-14T12:26:02;3.05;;;1.65;;
20705;SDS011;10514;49.468;11.044;2024-02-14T12:28:29;2.38;;;1.10;;
20705;SDS011;10514;49.468;11.044;2024-02-14T12:30:58;3.72;;;1.10;;
20705;SDS011;10514;49.468;11.044;2024-02-14T12:33:24;2.67;;;1.10;;
20705;SDS011;10514;49.468;11.044;2024-02-14T12:35:50;1.20;;;1.00;;
20705;SDS011;10514;49.468;11.044;2024-02-14T12:38:18;2.47;;;1.58;;
20705;SDS011;10514;49.468;11.044;2024-02-14T12:40:44;2.70;;;1.42;;
20705;SDS011;10514;49.468;11.044;2024-02-14T12:43:14;2.85;;;1.25;;
20705;SDS011;10514;49.468;11.044;2024-02-14T12:45:43;2.95;;;1.10;;
20705;SDS011;10514;49.468;11.044;2024-02-14T12:48:10;1.50;;;1.30;;
20705;SDS011;10514;49.468;11.044;2024-02-14T12:53:12;3.63;;;1.48;;
20705;SDS011;10514;49.468;11.044;2024-02-14T12:55:38;3.22;;;1.50;;
20705;SDS011;10514;49.468;11.044;2024-02-14T12:58:03;2.85;;;1.30;;
20705;SDS011;10514;49.468;11.044;2024-02-14T13:00:29;4.53;;;1.60;;
20705;SDS011;10514;49.468;11.044;2024-02-14T13:02:56;2.75;;;1.10;;
20705;SDS011;10514;49.468;11.044;2024-02-14T13:05:21;3.28;;;1.20;;
20705;SDS011;10514;49.468;11.044;2024-02-14T13:07:47;2.47;;;1.10;;
20705;SDS011;10514;49.468;11.044;2024-02-14T13:10:13;1.75;;;1.00;;
20705;SDS011;10514;49.468;11.044;2024-02-14T13:12:38;3.00;;;1.10;;
20705;SDS011;10514;49.468;11.044;2024-02-14T13:15:04;1.50;;;1.20;;
20705;SDS011;10514;49.468;11.044;2024-02-14T13:17:30;3.92;;;2.15;;
20705;SDS011;10514;49.468;11.044;2024-02-14T13:19:56;3.58;;;1.83;;
20705;SDS011;10514;49.468;11.044;2024-02-14T13:22:22;2.60;;;1.80;;
20705;SDS011;10514;49.468;11.044;2024-02-14T13:24:48;3.45;;;1.58;;
20705;SDS011;10514;49.468;11.044;2024-02-14T13:27:13;3.65;;;1.48;;
20705;SDS011;10514;49.468;11.044;2024-02-14T13:29:39;3.20;;;1.30;;
20705;SDS011;10514;49.468;11.044;2024-02-14T13:32:05;4.05;;;1.48;;
20705;SDS011;10514;49.468;11.044;2024-02-14T13:34:32;4.20;;;1.70;;
20705;SDS011;10514;49.468;11.044;2024-02-14T13:37:01;3.47;;;1.40;;
20705;SDS011;10514;49.468;11.044;2024-02-14T13:39:27;2.83;;;1.40;;
20705;SDS011;10514;49.468;11.044;2024-02-14T13:41:53;3.42;;;1.40;;
20705;SDS011;10514;49.468;11.044;2024-02-14T13:44:19;4.57;;;1.17;;
20705;SDS011;10514;49.468;11.044;2024-02-14T13:46:45;1.48;;;1.00;;
20705;SDS011;10514;49.468;11.044;2024-02-14T13:49:11;2.65;;;1.10;;
20705;SDS011;10514;49.468;11.044;2024-02-14T13:51:41;2.83;;;1.30;;
20705;SDS011;10514;49.468;11.044;2024-02-14T13:54:06;1.60;;;1.00;;
20705;SDS011;10514;49.468;11.044;2024-02-14T13:56:34;5.13;;;1.30;;
20705;SDS011;10514;49.468;11.044;2024-02-14T13:58:59;3.70;;;1.20;;
20705;SDS011;10514;49.468;11.044;2024-02-14T14:01:25;3.25;;;1.30;;
20705;SDS011;10514;49.468;11.044;2024-02-14T14:03:51;5.45;;;1.90;;
20705;SDS011;10514;49.468;11.044;2024-02-14T14:06:19;3.10;;;1.58;;
20705;SDS011;10514;49.468;11.044;2024-02-14T14:08:45;3.47;;;1.30;;
20705;SDS011;10514;49.468;11.044;2024-02-14T14:11:11;3.50;;;1.38;;
20705;SDS011;10514;49.468;11.044;2024-02-14T14:13:37;3.10;;;1.90;;
20705;SDS011;10514;49.468;11.044;2024-02-14T14:16:02;3.70;;;1.50;;
20705;SDS011;10514;49.468;11.044;2024-02-14T14:18:30;5.55;;;1.40;;
20705;SDS011;10514;49.468;11.044;2024-02-14T14:20:55;3.90;;;1.65;;
20705;SDS011;10514;49.468;11.044;2024-02-14T14:23:21;2.60;;;1.50;;
20705;SDS011;10514;49.468;11.044;2024-02-14T14:25:46;6.13;;;1.70;;
20705;SDS011;10514;49.468;11.044;2024-02-14T14:28:12;5.53;;;1.77;;
20705;SDS011;10514;49.468;11.044;2024-02-14T14:30:39;4.57;;;1.80;;
20705;SDS011;10514;49.468;11.044;2024-02-14T14:33:05;3.90;;;1.40;;
20705;SDS011;10514;49.468;11.044;2024-02-14T14:35:33;2.22;;;1.27;;